Time;durP1;ratioP1;P1;durP2;ratioP2;P2;SDS_P1;SDS_P2;PMS_P1;PMS_P2;Temp;Humidity;BMP_temperature;BMP_pressure;BME280_temperature;BME280_humidity;BME280_pressure;Samples;Min_cycle;Max_cycle;Signal;HPM_P1;HPM_P2
2021/05/19 00:00:26;;;;;;;9.50;7.03;;;;;;;11.08;74.71;99919.44;128206;1101;22627;-74
2021/05/19 00:03:14;;;;;;;10.55;7.68;;;;;;;11.02;74.69;99920.98;128239;1101;22355;-74
2021/05/19 00:05:44;;;;;;;7.90;6.38;;;;;;;10.99;74.76;99912.59;128260;1101;23123;-74
2021/05/19 00:08:14;;;;;;;9.63;6.50;;;;;;;10.97;74.88;99919.90;128232;1101;22380;-74
2021/05/19 00:10:43;;;;;;;6.05;5.45;;;;;;;10.95;75.13;99917.42;127918;1105;22363;-75
2021/05/19 00:13:13;;;;;;;7.70;5.75;;;;;;;10.93;75.15;99923.88;127523;1105;22411;-75
2021/05/19 00:15:43;;;;;;;7.18;6.30;;;;;;;10.92;75.28;99920.42;127528;1107;22388;-75
2021/05/19 00:18:13;;;;;;;7.85;7.00;;;;;;;10.93;75.31;99923.88;127600;1104;22392;-75
2021/05/19 00:20:43;;;;;;;7.47;6.73;;;;;;;10.93;75.49;99921.23;127471;1107;23508;-76
2021/05/19 00:23:14;;;;;;;12.10;7.73;;;;;;;10.92;75.49;99925.70;127495;1105;22440;-75
2021/05/19 00:25:44;;;;;;;7.80;7.10;;;;;;;10.92;75.46;99917.78;127469;1107;23457;-74
2021/05/19 00:28:13;;;;;;;8.40;7.70;;;;;;;10.92;75.56;99922.25;127450;1101;22376;-74
2021/05/19 00:30:45;;;;;;;8.30;7.45;;;;;;;10.91;75.51;99916.15;127984;1101;22368;-75
2021/05/19 00:33:15;;;;;;;8.13;7.15;;;;;;;10.92;75.41;99916.96;128239;1101;22362;-74
2021/05/19 00:35:44;;;;;;;9.50;7.90;;;;;;;10.93;75.68;99921.23;128218;1101;22379;-74
2021/05/19 00:38:14;;;;;;;8.95;7.50;;;;;;;10.93;75.84;99918.59;128201;1098;24252;-74
2021/05/19 00:40:45;;;;;;;7.78;6.53;;;;;;;10.95;76.48;99925.34;128158;1101;22367;-74
2021/05/19 00:43:15;;;;;;;8.80;6.95;;;;;;;10.99;76.15;99925.80;128297;1101;22364;-75
2021/05/19 00:45:45;;;;;;;7.13;6.40;;;;;;;11.00;76.05;99920.36;128251;1101;22347;-76
2021/05/19 00:48:15;;;;;;;7.55;6.83;;;;;;;11.02;75.96;99923.63;128324;1098;22364;-73
2021/05/19 00:50:45;;;;;;;8.48;7.78;;;;;;;11.03;76.27;99919.19;128228;1098;22347;-75
2021/05/19 00:53:15;;;;;;;9.00;8.00;;;;;;;11.05;76.31;99923.27;128224;1098;22369;-75
2021/05/19 00:55:44;;;;;;;8.80;7.70;;;;;;;11.07;76.38;99918.63;128183;1098;25002;-76
2021/05/19 00:58:15;;;;;;;9.70;8.85;;;;;;;11.10;76.31;99924.56;128231;1098;24259;-75
2021/05/19 01:00:45;;;;;;;8.85;7.95;;;;;;;11.12;76.45;99923.36;128234;1101;22362;-75
2021/05/19 01:03:37;;;;;;;9.20;8.35;;;;;;;11.14;76.49;99921.36;128238;1101;22350;-74
2021/05/19 01:06:16;;;;;;;10.27;9.47;;;;;;;11.16;76.53;99919.38;128009;1102;22364;-74
2021/05/19 01:11:39;;;;;;;11.53;10.53;;;;;;;11.15;76.49;99930.92;128204;1101;22340;-74
2021/05/19 01:14:10;;;;;;;11.03;10.13;;;;;;;11.16;76.64;99932.59;128265;1101;23208;-74
2021/05/19 01:16:39;;;;;;;10.48;9.48;;;;;;;11.17;76.62;99926.29;128228;1101;22347;-75
2021/05/19 01:19:09;;;;;;;10.98;10.13;;;;;;;11.20;76.48;99927.76;128238;1101;23304;-76
2021/05/19 01:21:43;;;;;;;12.60;11.33;;;;;;;11.20;76.51;99927.76;128219;1101;22795;-74
2021/05/19 01:24:12;;;;;;;12.35;11.25;;;;;;;11.21;76.51;99924.91;128241;1101;22349;-74
2021/05/19 01:26:42;;;;;;;12.73;11.50;;;;;;;11.20;76.47;99920.64;128249;1101;22365;-74
2021/05/19 01:29:13;;;;;;;12.18;11.03;;;;;;;11.21;76.52;99922.27;128232;1098;22393;-74
2021/05/19 01:31:48;;;;;;;13.50;12.20;;;;;;;11.23;76.55;99930.86;128285;1098;22358;-74
2021/05/19 01:34:17;;;;;;;14.00;12.80;;;;;;;11.24;76.55;99929.84;128236;1098;22351;-75
2021/05/19 01:36:47;;;;;;;14.40;13.05;;;;;;;11.24;76.53;99931.67;128204;1098;22352;-75
2021/05/19 01:39:17;;;;;;;14.03;12.80;;;;;;;11.22;76.66;99929.19;128200;1098;24479;-75
2021/05/19 01:41:49;;;;;;;15.50;14.10;;;;;;;11.22;76.61;99928.38;128197;1098;22353;-74
2021/05/19 01:44:22;;;;;;;14.03;12.73;;;;;;;11.21;76.77;99924.91;128258;1098;22347;-75
2021/05/19 01:46:58;;;;;;;14.40;12.80;;;;;;;11.21;76.84;99922.27;128251;1101;22384;-74
2021/05/19 01:49:30;;;;;;;14.10;12.70;;;;;;;11.19;76.56;99924.27;128202;1101;22364;-75
2021/05/19 01:52:00;;;;;;;;;;;;;;;11.12;76.20;99925.19;127971;1104;22484;-75
2021/05/19 01:54:31;;;;;;;13.13;11.95;;;;;;;11.03;76.68;99930.57;127936;1103;21344;-75
2021/05/19 01:57:01;;;;;;;14.27;13.00;;;;;;;11.03;76.90;99930.57;127468;1104;23100;-75
2021/05/19 01:59:31;;;;;;;13.87;12.47;;;;;;;11.04;76.62;99928.74;127972;1104;22386;-74
2021/05/19 02:02:02;;;;;;;13.10;12.03;;;;;;;11.04;77.03;99934.84;127882;1101;22368;-75
2021/05/19 02:04:33;;;;;;;11.43;10.53;;;;;;;11.03;77.17;99935.04;127621;1105;22608;-75
2021/05/19 02:07:03;;;;;;;13.95;12.78;;;;;;;11.02;77.18;99936.84;127887;1101;23356;-74
2021/05/19 02:09:42;;;;;;;12.85;11.75;;;;;;;11.03;77.17;99935.86;127985;1101;22404;-74
2021/05/19 02:12:14;;;;;;;13.78;12.68;;;;;;;11.04;77.07;99936.67;128189;1098;22364;-74
2021/05/19 02:14:45;;;;;;;14.35;13.15;;;;;;;11.03;77.05;99940.33;128222;1098;24459;-73
2021/05/19 02:17:15;;;;;;;15.23;13.85;;;;;;;11.00;77.03;99946.78;128202;1098;22435;-75
2021/05/19 02:19:45;;;;;;;14.08;12.98;;;;;;;10.98;77.22;99945.32;128201;1101;22737;-75
2021/05/19 02:22:14;;;;;;;13.53;12.35;;;;;;;10.95;77.15;99949.13;128184;1100;22366;-74
2021/05/19 02:24:53;;;;;;;13.95;12.85;;;;;;;10.93;77.45;99945.02;128193;1101;22349;-75
2021/05/19 02:27:24;;;;;;;13.98;12.73;;;;;;;10.93;77.39;99945.88;128224;1101;22346;-74
2021/05/19 02:29:55;;;;;;;15.20;13.65;;;;;;;10.96;77.29;99952.59;128225;1101;22346;-73
2021/05/19 02:32:27;;;;;;;14.55;13.35;;;;;;;10.97;77.46;99952.43;128182;1101;23389;-74
2021/05/19 02:35:00;;;;;;;13.60;12.40;;;;;;;10.97;77.57;99951.61;128287;1098;24486;-74
2021/05/19 02:37:31;;;;;;;13.98;12.65;;;;;;;11.00;77.49;99954.72;128180;1102;22362;-74
2021/05/19 02:40:01;;;;;;;14.13;13.03;;;;;;;11.04;77.68;99953.34;127954;1101;22373;-75
2021/05/19 02:42:32;;;;;;;14.60;13.08;;;;;;;11.06;77.41;99959.29;127960;1104;22500;-75
2021/05/19 02:45:04;;;;;;;14.40;13.00;;;;;;;11.10;77.60;99949.17;127981;1101;23230;-75
2021/05/19 02:47:34;;;;;;;13.38;12.28;;;;;;;11.13;77.77;99951.45;127994;1104;23116;-74
2021/05/19 02:50:06;;;;;;;13.28;12.15;;;;;;;11.15;77.59;99948.62;127971;1101;24333;-75
2021/05/19 02:52:35;;;;;;;13.35;11.93;;;;;;;11.15;77.57;99952.08;127945;1105;22365;-73
2021/05/19 02:55:07;;;;;;;13.73;12.43;;;;;;;11.15;77.48;99949.43;127942;1101;24582;-74
2021/05/19 02:57:36;;;;;;;12.83;11.73;;;;;;;11.16;77.41;99964.31;127956;1101;22390;-75
2021/05/19 03:00:08;;;;;;;12.65;11.60;;;;;;;11.16;77.41;99956.38;128208;1098;24252;-74
2021/05/19 03:02:38;;;;;;;13.60;12.38;;;;;;;11.16;77.31;99963.47;127924;1101;24810;-75
2021/05/19 03:05:08;;;;;;;12.30;11.40;;;;;;;11.17;77.41;99965.13;127956;1104;22357;-75
2021/05/19 03:07:40;;;;;;;12.55;11.45;;;;;;;11.14;77.16;99963.66;127934;1104;22478;-74
2021/05/19 03:10:11;;;;;;;11.85;10.65;;;;;;;11.11;77.20;99963.20;127446;1107;22378;-76
2021/05/19 03:12:41;;;;;;;11.17;10.07;;;;;;;11.07;77.19;99963.56;127459;1103;22472;-74
2021/05/19 03:15:12;;;;;;;12.45;11.10;;;;;;;11.06;77.33;99966.37;127707;1103;22382;-75
2021/05/19 03:17:42;;;;;;;16.23;11.83;;;;;;;11.05;77.49;99972.66;127472;1108;23349;-75
2021/05/19 03:20:13;;;;;;;12.18;11.08;;;;;;;11.04;77.39;99971.03;127542;1103;22368;-75
2021/05/19 03:22:43;;;;;;;12.13;11.10;;;;;;;11.07;77.53;99976.78;127575;1105;22444;-75
2021/05/19 03:25:13;;;;;;;12.25;11.15;;;;;;;11.10;77.58;99972.97;127948;1104;24077;-75
2021/05/19 03:27:43;;;;;;;11.68;10.50;;;;;;;11.12;77.68;99983.34;127940;1102;22376;-74
2021/05/19 03:30:16;;;;;;;13.13;10.63;;;;;;;11.14;77.49;99979.52;127952;1103;22391;-75
2021/05/19 03:32:46;;;;;;;11.87;10.73;;;;;;;11.14;77.53;99984.81;128087;1104;22752;-74
2021/05/19 03:35:16;;;;;;;11.63;10.48;;;;;;;11.18;77.50;99987.91;127938;1098;22378;-74
2021/05/19 03:37:45;;;;;;;11.40;10.40;;;;;;;11.20;77.70;99981.45;128246;1098;23138;-74
2021/05/19 03:40:16;;;;;;;11.33;10.13;;;;;;;11.23;77.61;99989.02;128252;1100;22347;-75
2021/05/19 03:42:45;;;;;;;11.40;10.35;;;;;;;11.26;77.58;99995.75;128250;1101;22361;-75
2021/05/19 03:45:20;;;;;;;14.88;10.75;;;;;;;11.29;77.43;99995.39;128178;1101;22362;-76
2021/05/19 03:47:53;;;;;;;10.48;9.58;;;;;;;11.33;77.40;100001.14;128224;1098;22382;-80
2021/05/19 03:50:28;;;;;;;12.13;10.93;;;;;;;11.36;77.49;100004.23;128237;1101;22847;-79
2021/05/19 03:53:03;;;;;;;11.23;10.10;;;;;;;11.40;77.39;99999.44;128283;1098;22364;-78
2021/05/19 03:55:35;;;;;;;9.90;9.13;;;;;;;11.41;77.33;100001.89;128555;1101;22359;-75
2021/05/19 03:58:05;;;;;;;11.70;9.95;;;;;;;11.44;77.31;100004.17;128230;1101;22361;-73
2021/05/19 04:00:35;;;;;;;11.63;10.30;;;;;;;11.49;77.19;100001.78;128175;1101;22452;-74
2021/05/19 04:03:06;;;;;;;10.68;9.30;;;;;;;11.50;76.98;99999.98;128029;1098;22349;-74
2021/05/19 04:05:36;;;;;;;9.88;8.93;;;;;;;11.50;76.83;100005.28;128194;1101;22370;-74
2021/05/19 04:08:07;;;;;;;10.35;9.25;;;;;;;11.51;76.87;100004.27;128164;1098;22358;-73
2021/05/19 04:10:37;;;;;;;9.50;8.60;;;;;;;11.54;77.08;100014.48;128216;1098;22829;-74
2021/05/19 04:13:07;;;;;;;9.08;8.03;;;;;;;11.55;76.65;100016.93;128224;1098;26124;-74
2021/05/19 04:15:36;;;;;;;9.60;8.53;;;;;;;11.58;76.61;100018.40;128176;1098;24150;-73
2021/05/19 04:18:06;;;;;;;10.08;8.90;;;;;;;11.63;76.64;100017.84;128167;1101;22349;-73
2021/05/19 04:20:38;;;;;;;12.10;8.33;;;;;;;11.64;76.53;100025.61;128174;1100;22373;-74
2021/05/19 04:23:08;;;;;;;10.18;8.80;;;;;;;11.68;76.35;100029.53;128266;1101;22367;-75
2021/05/19 04:25:40;;;;;;;9.75;8.80;;;;;;;11.68;75.60;100029.53;128192;1101;22334;-74
2021/05/19 04:28:10;;;;;;;9.70;8.28;;;;;;;11.69;76.12;100025.88;128191;1101;22374;-74
2021/05/19 04:30:40;;;;;;;9.70;8.00;;;;;;;11.73;76.30;100032.46;127951;1101;24463;-74
2021/05/19 04:33:10;;;;;;;8.65;7.83;;;;;;;11.77;76.01;100039.02;127862;1104;22360;-74
2021/05/19 04:35:40;;;;;;;9.98;8.98;;;;;;;11.81;76.05;100041.30;127892;1100;22358;-73
2021/05/19 04:38:10;;;;;;;9.83;8.50;;;;;;;11.85;75.92;100043.42;127891;1104;22340;-74
2021/05/19 04:40:41;;;;;;;8.98;8.08;;;;;;;11.87;75.87;100041.42;127902;1104;22343;-74
2021/05/19 04:43:11;;;;;;;9.45;8.58;;;;;;;11.89;75.76;100042.05;127896;1100;24233;-75
2021/05/19 04:45:41;;;;;;;10.73;9.00;;;;;;;11.92;75.70;100040.86;127933;1100;24246;-75
2021/05/19 04:48:12;;;;;;;10.00;8.28;;;;;;;11.94;75.58;100044.16;127920;1102;23220;-75
2021/05/19 04:50:42;;;;;;;10.85;8.75;;;;;;;11.98;75.66;100042.78;128248;1101;22361;-73
2021/05/19 04:53:13;;;;;;;8.80;8.03;;;;;;;12.02;75.53;100049.34;128199;1101;22390;-74
2021/05/19 04:55:42;;;;;;;10.88;8.15;;;;;;;12.05;75.33;100046.33;128182;1101;22394;-75
2021/05/19 04:58:13;;;;;;;11.55;8.15;;;;;;;12.08;75.52;100050.44;128139;1098;24465;-74
2021/05/19 05:00:43;;;;;;;10.45;8.60;;;;;;;12.06;75.12;100055.91;128172;1098;25101;-75
2021/05/19 05:03:13;;;;;;;13.65;10.00;;;;;;;12.10;75.29;100056.38;128133;1098;24482;-74
2021/05/19 05:05:43;;;;;;;12.88;8.98;;;;;;;12.11;75.22;100053.53;128201;1098;22349;-73
2021/05/19 05:08:14;;;;;;;10.05;8.13;;;;;;;12.15;75.20;100060.09;128161;1098;22424;-74
2021/05/19 05:10:43;;;;;;;11.40;10.28;;;;;;;12.21;75.38;100067.30;128192;1101;22352;-74
2021/05/19 05:13:13;;;;;;;10.63;8.85;;;;;;;12.28;75.23;100062.09;128202;1101;22364;-74
2021/05/19 05:15:43;;;;;;;9.25;8.38;;;;;;;12.34;74.97;100071.13;128143;1101;22442;-73
2021/05/19 05:18:13;;;;;;;9.40;8.50;;;;;;;12.37;74.79;100058.33;128202;1101;22367;-73
2021/05/19 05:20:43;;;;;;;8.78;7.70;;;;;;;12.42;74.69;100065.70;128216;1098;22347;-74
2021/05/19 05:23:13;;;;;;;11.05;8.73;;;;;;;12.44;74.21;100069.00;128212;1101;22465;-73
2021/05/19 05:25:43;;;;;;;10.27;8.67;;;;;;;12.41;74.25;100064.89;128203;1098;22384;-72
2021/05/19 05:28:13;;;;;;;8.65;7.75;;;;;;;12.43;74.43;100067.38;128245;1101;22349;-73
2021/05/19 05:30:43;;;;;;;9.05;7.75;;;;;;;12.52;74.30;100074.17;128192;1098;22357;-73
2021/05/19 05:33:13;;;;;;;10.95;8.33;;;;;;;12.58;74.27;100069.96;127931;1104;22591;-74
2021/05/19 05:35:43;;;;;;;8.10;7.30;;;;;;;12.68;74.09;100073.13;127962;1101;24839;-74
2021/05/19 05:38:13;;;;;;;7.80;7.03;;;;;;;12.74;73.72;100071.56;127949;1104;22392;-74
2021/05/19 05:40:43;;;;;;;8.63;7.73;;;;;;;12.81;73.73;100078.56;127957;1101;24208;-74
2021/05/19 05:43:13;;;;;;;14.00;7.00;;;;;;;12.89;73.21;100081.08;127937;1101;23947;-74
2021/05/19 05:45:42;;;;;;;7.83;7.13;;;;;;;12.99;72.99;100085.25;127910;1104;22495;-74
2021/05/19 05:48:13;;;;;;;11.25;6.93;;;;;;;13.10;72.50;100084.76;127969;1101;22884;-73
2021/05/19 05:50:42;;;;;;;11.05;7.58;;;;;;;13.23;72.32;100086.67;127911;1101;23196;-75
2021/05/19 05:53:12;;;;;;;17.83;8.33;;;;;;;13.38;71.98;100090.11;128164;1098;24488;-74
2021/05/19 05:55:42;;;;;;;10.43;7.23;;;;;;;13.50;71.08;100088.58;128151;1100;22367;-73
2021/05/19 05:58:13;;;;;;;8.08;6.15;;;;;;;13.59;70.22;100086.58;128213;1101;22780;-75
2021/05/19 06:00:43;;;;;;;7.55;6.80;;;;;;;13.69;69.89;100088.89;128174;1101;22804;-74
2021/05/19 06:03:14;;;;;;;8.28;6.28;;;;;;;13.77;69.08;100086.10;128222;1101;22347;-73
2021/05/19 06:05:43;;;;;;;6.13;5.50;;;;;;;13.96;69.28;100088.06;128162;1098;24505;-74
2021/05/19 06:08:14;;;;;;;10.85;6.50;;;;;;;14.29;69.32;100090.03;128176;1101;22811;-75
2021/05/19 06:10:43;;;;;;;8.03;6.00;;;;;;;14.68;68.81;100096.53;128190;1098;22349;-79
2021/05/19 06:13:13;;;;;;;5.73;4.80;;;;;;;15.09;67.93;100088.41;128213;1101;22349;-78
2021/05/19 06:15:43;;;;;;;8.93;5.10;;;;;;;15.37;65.84;100096.21;128227;1098;22446;-79
2021/05/19 06:18:14;;;;;;;6.73;5.18;;;;;;;15.48;64.27;100098.24;128175;1101;22349;-74
2021/05/19 06:20:44;;;;;;;6.45;5.93;;;;;;;15.52;63.28;100088.81;128155;1101;22355;-75
2021/05/19 06:23:14;;;;;;;9.53;5.25;;;;;;;15.56;62.90;100093.73;128152;1098;24485;-75
2021/05/19 06:25:44;;;;;;;7.03;5.18;;;;;;;15.68;62.65;100097.44;128153;1101;22375;-75
2021/05/19 06:28:14;;;;;;;5.90;5.30;;;;;;;15.81;62.06;100101.93;128171;1101;22365;-75
2021/05/19 06:30:44;;;;;;;7.20;5.90;;;;;;;15.98;61.79;100103.11;128194;1098;22437;-74
2021/05/19 06:33:14;;;;;;;6.18;5.55;;;;;;;16.10;60.90;100095.30;128153;1101;22361;-75
2021/05/19 06:35:44;;;;;;;5.65;5.15;;;;;;;16.27;60.44;100100.98;128214;1098;24294;-75
2021/05/19 06:38:14;;;;;;;5.47;4.97;;;;;;;16.54;60.36;100097.16;128193;1098;24453;-75
2021/05/19 06:40:44;;;;;;;7.90;5.23;;;;;;;17.11;59.92;100099.92;128180;1098;22889;-74
2021/05/19 06:43:14;;;;;;;7.98;5.18;;;;;;;17.51;57.87;100099.59;128136;1098;22352;-75
2021/05/19 06:45:44;;;;;;;5.20;4.70;;;;;;;17.55;56.03;100109.61;128140;1101;22346;-74
2021/05/19 06:48:15;;;;;;;6.33;4.60;;;;;;;17.37;54.76;100107.73;127869;1104;22347;-74
2021/05/19 06:50:45;;;;;;;7.25;5.03;;;;;;;17.25;55.18;100109.45;127878;1104;22360;-74
2021/05/19 06:53:16;;;;;;;8.10;4.85;;;;;;;17.17;55.10;100104.40;128002;1104;22470;-75
2021/05/19 06:55:50;;;;;;;8.00;5.03;;;;;;;17.19;55.22;100104.98;127895;1105;22346;-75
2021/05/19 06:58:20;;;;;;;8.15;5.10;;;;;;;17.15;55.14;100109.13;127339;1104;24345;-74
2021/05/19 07:00:49;;;;;;;5.35;4.33;;;;;;;17.23;55.06;100108.88;127395;1103;24610;-74
2021/05/19 07:03:19;;;;;;;9.50;4.58;;;;;;;17.25;54.70;100108.64;126922;1107;24524;-74
2021/05/19 07:05:51;;;;;;;7.48;4.60;;;;;;;17.22;54.31;100104.55;126949;1106;24611;-74
2021/05/19 07:08:21;;;;;;;5.93;4.77;;;;;;;17.14;54.12;100113.65;127394;1107;22511;-73
2021/05/19 07:10:51;;;;;;;6.35;4.55;;;;;;;17.13;54.04;100119.22;127369;1106;26048;-76
2021/05/19 07:13:21;;;;;;;5.43;4.03;;;;;;;17.10;53.90;100124.98;127451;1107;22422;-75
2021/05/19 07:15:52;;;;;;;9.30;5.58;;;;;;;17.04;53.33;100117.84;127466;1105;22824;-75
2021/05/19 07:18:22;;;;;;;;;;;;;;;16.88;52.97;100119.16;127960;1101;24495;-76
2021/05/19 07:20:52;;;;;;;4.98;4.48;;;;;;;16.79;53.91;100120.44;127961;1101;21270;-76
2021/05/19 07:23:24;;;;;;;7.30;4.58;;;;;;;16.91;54.19;100116.88;128245;1101;22452;-75
2021/05/19 07:25:54;;;;;;;6.00;4.63;;;;;;;17.09;53.89;100120.66;128184;1101;22333;-76
2021/05/19 07:28:24;;;;;;;5.90;5.30;;;;;;;17.21;53.54;100116.27;128234;1101;22349;-78
2021/05/19 07:30:54;;;;;;;7.18;5.88;;;;;;;17.30;53.01;100112.30;128226;1101;22339;-78
2021/05/19 07:33:24;;;;;;;7.28;4.98;;;;;;;17.39;52.89;100112.84;128259;1098;22418;-77
2021/05/19 07:35:54;;;;;;;5.45;4.65;;;;;;;17.47;52.32;100127.79;128245;1101;22391;-76
2021/05/19 07:38:24;;;;;;;5.65;4.78;;;;;;;17.51;52.24;100118.30;128268;1101;23092;-77
2021/05/19 07:40:53;;;;;;;8.18;5.25;;;;;;;17.41;51.47;100124.94;128266;1101;22349;-75
2021/05/19 07:43:24;;;;;;;6.90;5.15;;;;;;;17.32;51.81;100117.41;128333;1101;22446;-75
2021/05/19 07:45:54;;;;;;;5.70;5.00;;;;;;;17.21;51.49;100126.13;128417;1101;22362;-76
2021/05/19 07:48:22;;;;;;;7.65;4.75;;;;;;;17.16;51.81;100122.27;128197;1098;25827;-75
2021/05/19 07:50:51;;;;;;;7.48;4.53;;;;;;;17.14;51.97;100123.52;128208;1098;24479;-77
2021/05/19 07:53:19;;;;;;;6.60;4.98;;;;;;;17.23;51.89;100122.22;128245;1098;22606;-75
2021/05/19 07:55:52;;;;;;;6.38;5.13;;;;;;;17.36;51.71;100118.61;128228;1098;22356;-76
2021/05/19 07:58:30;;;;;;;7.15;4.95;;;;;;;17.55;51.62;100122.97;128209;1098;24480;-76
2021/05/19 08:03:34;;;;;;;6.15;4.70;;;;;;;17.59;50.80;100110.84;128265;1101;22465;-77
2021/05/19 08:06:04;;;;;;;5.43;4.73;;;;;;;17.80;51.13;100114.16;128233;1101;23329;-76
2021/05/19 08:08:33;;;;;;;6.38;4.68;;;;;;;18.01;50.30;100120.92;128341;1101;22364;-76
2021/05/19 08:11:01;;;;;;;9.85;7.20;;;;;;;18.22;49.99;100116.98;128213;1101;22351;-75
2021/05/19 08:13:30;;;;;;;6.20;5.45;;;;;;;18.52;49.75;100106.33;128230;1098;25053;-77
2021/05/19 08:15:58;;;;;;;4.78;4.28;;;;;;;18.80;48.75;100103.92;128237;1098;22351;-76
2021/05/19 08:18:27;;;;;;;5.40;4.88;;;;;;;19.23;48.54;100110.90;128208;1101;22349;-77
2021/05/19 08:20:56;;;;;;;6.18;4.83;;;;;;;19.52;47.47;100105.67;128343;1101;22455;-75
2021/05/19 08:23:27;;;;;;;4.95;4.43;;;;;;;19.71;46.73;100093.82;128246;1098;24453;-75
2021/05/19 08:25:57;;;;;;;6.18;4.98;;;;;;;20.05;46.53;100102.05;128286;1101;22367;-77
2021/05/19 08:28:28;;;;;;;;;;;;;;;20.31;45.67;100099.91;128272;1100;22453;-75
2021/05/19 08:30:57;;;;;;;8.15;4.80;;;;;;;20.47;46.44;100101.83;128230;1101;21270;-76
2021/05/19 08:33:47;;;;;;;10.63;6.48;;;;;;;20.66;45.56;100097.13;128256;1101;22340;-76
2021/05/19 08:36:17;;;;;;;10.67;5.60;;;;;;;20.64;45.33;100102.72;128259;1101;23245;-76
2021/05/19 08:38:47;;;;;;;6.85;6.18;;;;;;;20.61;45.36;100105.08;128246;1101;22347;-76
2021/05/19 08:41:17;;;;;;;6.93;5.23;;;;;;;20.88;45.91;100110.66;128218;1098;22364;-76
2021/05/19 08:43:47;;;;;;;7.98;5.25;;;;;;;21.32;44.67;100118.92;128245;1101;22377;-76
2021/05/19 08:46:24;;;;;;;7.45;5.70;;;;;;;21.58;42.99;100112.11;128279;1098;22789;-75
2021/05/19 08:49:01;;;;;;;5.43;4.10;;;;;;;21.80;42.69;100114.86;128258;1101;22361;-77
2021/05/19 08:51:31;;;;;;;6.43;5.40;;;;;;;22.03;42.50;100114.64;127946;1101;23953;-76
2021/05/19 08:54:02;;;;;;;7.40;5.35;;;;;;;22.23;41.62;100121.38;127958;1101;24189;-74
2021/05/19 08:56:32;;;;;;;6.73;4.90;;;;;;;22.43;41.97;100115.42;127985;1104;22402;-73
2021/05/19 08:59:02;;;;;;;6.38;4.78;;;;;;;22.51;41.13;100106.89;127922;1104;22833;-73
2021/05/19 09:01:52;;;;;;;6.88;5.35;;;;;;;22.30;40.73;100105.85;128001;1104;22377;-73
2021/05/19 09:04:24;;;;;;;5.65;5.03;;;;;;;22.34;40.78;100115.04;128018;1105;22374;-74
2021/05/19 09:06:59;;;;;;;4.93;3.80;;;;;;;22.20;40.45;100111.11;128026;1104;22369;-74
2021/05/19 09:09:38;;;;;;;5.20;4.15;;;;;;;22.03;39.99;100105.76;128105;1098;22337;-74
2021/05/19 09:12:18;;;;;;;6.18;4.55;;;;;;;21.70;39.94;100099.39;128046;1102;22345;-74
2021/05/19 09:15:13;;;;;;;8.27;5.60;;;;;;;21.81;41.64;100103.84;128268;1101;22352;-72
2021/05/19 09:17:43;;;;;;;7.60;5.13;;;;;;;22.24;39.86;100099.59;127918;1104;23888;-73
2021/05/19 09:20:16;;;;;;;6.50;5.08;;;;;;;22.49;39.67;100100.94;127922;1101;22411;-74
2021/05/19 09:22:50;;;;;;;6.33;5.13;;;;;;;22.58;39.09;100109.38;128052;1104;22383;-72
2021/05/19 09:25:24;;;;;;;6.98;5.05;;;;;;;22.71;38.48;100114.38;128052;1104;22362;-73
2021/05/19 09:27:58;;;;;;;7.48;4.38;;;;;;;22.53;37.51;100102.88;127974;1102;22389;-73
2021/05/19 09:30:40;;;;;;;8.38;4.35;;;;;;;22.24;37.63;100109.54;127970;1101;24528;-73
2021/05/19 09:33:32;;;;;;;5.28;4.45;;;;;;;21.80;37.84;100104.10;127962;1104;22687;-73
2021/05/19 09:36:21;;;;;;;6.60;6.00;;;;;;;21.36;38.71;100101.31;127487;1104;22293;-74
2021/05/19 09:38:53;;;;;;;6.40;5.45;;;;;;;21.00;39.39;100102.56;127414;1107;22410;-72
2021/05/19 09:41:32;;;;;;;6.58;5.10;;;;;;;20.93;40.46;100100.03;127496;1105;24536;-73
2021/05/19 09:44:05;;;;;;;6.17;4.43;;;;;;;21.17;41.02;100089.95;127468;1104;24359;-74
2021/05/19 09:46:38;;;;;;;5.23;4.33;;;;;;;21.57;39.98;100087.11;127406;1108;23171;-72
2021/05/19 09:49:22;;;;;;;6.03;4.28;;;;;;;21.95;39.03;100093.53;127395;1108;22409;-73
2021/05/19 09:52:14;;;;;;;6.00;4.35;;;;;;;21.92;38.43;100079.77;127815;1107;22475;-73
2021/05/19 09:54:44;;;;;;;5.63;4.73;;;;;;;21.69;38.64;100078.11;127606;1105;22534;-73
2021/05/19 09:57:19;;;;;;;5.88;3.80;;;;;;;21.34;38.87;100084.58;127963;1104;22468;-73
2021/05/19 09:59:52;;;;;;;5.40;4.58;;;;;;;20.83;38.95;100087.23;128082;1102;22363;-72
2021/05/19 10:02:27;;;;;;;5.75;4.00;;;;;;;20.34;38.88;100080.65;127980;1102;22819;-72
2021/05/19 10:05:03;;;;;;;6.40;4.13;;;;;;;19.91;39.77;100084.59;128113;1104;22465;-73
2021/05/19 10:07:34;;;;;;;5.15;3.90;;;;;;;19.61;40.60;100082.84;128119;1101;22363;-73
2021/05/19 10:10:05;;;;;;;5.40;4.00;;;;;;;19.27;41.09;100087.15;127949;1104;22379;-72
2021/05/19 10:12:39;;;;;;;5.60;4.33;;;;;;;19.09;41.31;100085.36;128058;1104;22383;-73
2021/05/19 10:15:20;;;;;;;7.25;5.08;;;;;;;19.02;42.64;100082.78;128262;1101;22432;-73
2021/05/19 10:18:02;;;;;;;4.95;4.45;;;;;;;19.10;42.78;100089.69;128189;1101;22462;-72
2021/05/19 10:20:39;;;;;;;7.58;5.05;;;;;;;19.10;42.21;100083.52;128277;1101;22364;-73
2021/05/19 10:23:14;;;;;;;12.58;4.80;;;;;;;19.16;42.73;100078.06;128220;1101;22364;-73
2021/05/19 10:25:43;;;;;;;6.20;4.38;;;;;;;19.23;41.62;100075.28;128198;1101;22361;-73
2021/05/19 10:28:16;;;;;;;4.48;4.08;;;;;;;19.15;41.78;100084.44;128193;1101;22347;-73
2021/05/19 10:30:51;;;;;;;5.93;3.90;;;;;;;19.13;41.91;100088.42;128210;1101;22787;-74
2021/05/19 10:33:47;;;;;;;4.78;3.95;;;;;;;18.97;41.88;100093.38;128273;1101;22330;-74
2021/05/19 10:36:24;;;;;;;6.78;4.70;;;;;;;18.66;42.41;100094.42;127934;1104;22346;-71
2021/05/19 10:39:09;;;;;;;6.77;3.83;;;;;;;18.34;42.72;100096.48;127891;1102;22352;-72
2021/05/19 10:41:39;;;;;;;4.93;3.40;;;;;;;18.11;43.26;100094.49;127932;1101;24478;-74
2021/05/19 10:44:12;;;;;;;5.38;3.43;;;;;;;17.93;43.19;100094.51;127951;1101;22361;-73
2021/05/19 10:50:06;;;;;;;5.75;4.33;;;;;;;17.70;43.95;100077.23;127952;1103;22376;-74
2021/05/19 10:59:10;;;;;;;7.33;4.63;;;;;;;17.84;44.87;100080.61;126713;1111;22385;-72
2021/05/19 11:01:41;;;;;;;5.43;3.98;;;;;;;17.98;44.27;100074.07;126622;1111;22384;-73
2021/05/19 11:04:20;;;;;;;10.40;5.50;;;;;;;18.06;44.28;100070.27;126911;1111;22405;-73
2021/05/19 11:06:56;;;;;;;4.78;4.38;;;;;;;18.09;44.33;100072.50;126678;1109;24649;-73
2021/05/19 11:09:32;;;;;;;9.63;4.13;;;;;;;18.21;44.34;100065.38;126918;1111;22680;-73
2021/05/19 11:12:24;;;;;;;4.85;3.70;;;;;;;18.38;44.08;100064.75;126665;1111;22388;-72
2021/05/19 11:15:16;;;;;;;5.25;3.73;;;;;;;18.39;43.49;100064.52;127391;1108;22367;-73
2021/05/19 11:17:53;;;;;;;4.05;3.18;;;;;;;18.41;43.99;100064.30;127493;1105;24290;-72
2021/05/19 11:20:23;;;;;;;6.50;4.60;;;;;;;18.52;44.49;100074.22;127430;1108;22431;-74
2021/05/19 11:22:56;;;;;;;6.20;4.45;;;;;;;18.60;44.53;100060.55;127438;1107;22404;-73
2021/05/19 11:25:26;;;;;;;6.30;4.98;;;;;;;18.62;44.46;100068.33;126912;1110;22910;-73
2021/05/19 11:27:59;;;;;;;5.93;4.05;;;;;;;18.58;44.33;100065.30;127354;1107;22358;-72
2021/05/19 11:30:29;;;;;;;6.18;3.50;;;;;;;18.51;43.67;100061.91;127695;1104;22386;-72
2021/05/19 11:33:10;;;;;;;5.23;2.83;;;;;;;18.39;43.17;100061.84;128003;1104;22371;-73
2021/05/19 11:35:41;;;;;;;5.53;3.68;;;;;;;18.32;43.51;100066.47;127953;1101;22356;-72
2021/05/19 11:38:16;;;;;;;4.55;3.75;;;;;;;18.28;43.35;100060.75;127935;1101;25770;-74
2021/05/19 11:40:51;;;;;;;5.10;3.93;;;;;;;18.21;43.31;100057.35;128071;1102;22352;-73
2021/05/19 11:43:21;;;;;;;4.60;4.00;;;;;;;18.17;43.75;100066.05;128256;1101;22354;-73
2021/05/19 11:45:59;;;;;;;4.65;3.78;;;;;;;18.11;44.13;100057.06;128201;1101;22370;-74
2021/05/19 11:48:29;;;;;;;5.00;3.98;;;;;;;18.07;44.45;100062.05;127990;1098;24177;-73
2021/05/19 11:51:26;;;;;;;9.53;3.90;;;;;;;18.04;45.02;100064.36;128214;1101;22353;-73
2021/05/19 11:54:00;;;;;;;2.75;1.93;;;;;;;17.97;43.88;100064.43;128220;1098;24979;-72